Time;durP1;ratioP1;P1;durP2;ratioP2;P2;SDS_P1;SDS_P2;PMS_P1;PMS_P2;Temp;Humidity;BMP_temperature;BMP_pressure;BME280_temperature;BME280_humidity;BME280_pressure;Samples;Min_cycle;Max_cycle;Signal;HPM_P1;HPM_P2
2023/12/16 00:01:03;;;;;;;19.77;5.05;;;9.60;99.90;;;;;;4967979;28;88200;-74
2023/12/16 00:03:29;;;;;;;15.10;4.38;;;9.50;99.90;;;;;;4968697;28;87505;-74
2023/12/16 00:05:54;;;;;;;18.33;4.43;;;9.50;99.90;;;;;;4953169;28;89651;-74
2023/12/16 00:08:21;;;;;;;15.40;4.20;;;9.50;99.90;;;;;;4955830;28;91781;-74
2023/12/16 00:10:47;;;;;;;13.23;4.50;;;9.60;99.90;;;;;;4971935;28;87995;-74
2023/12/16 00:13:13;;;;;;;14.40;4.22;;;9.60;99.90;;;;;;4954812;28;88806;-74
2023/12/16 00:15:39;;;;;;;13.93;4.28;;;9.50;99.90;;;;;;4954125;28;88137;-73
2023/12/16 00:18:04;;;;;;;15.48;4.65;;;9.40;99.90;;;;;;4953537;28;89818;-75
2023/12/16 00:20:30;;;;;;;14.02;4.38;;;9.40;99.90;;;;;;4953668;28;91036;-74
2023/12/16 00:22:56;;;;;;;13.00;4.47;;;9.40;99.90;;;;;;4953849;28;87778;-73
2023/12/16 00:25:21;;;;;;;15.23;4.40;;;9.40;99.90;;;;;;4970669;28;87809;-75
2023/12/16 00:27:47;;;;;;;16.65;4.68;;;9.40;99.90;;;;;;4971756;28;88617;-73
2023/12/16 00:30:13;;;;;;;12.93;4.65;;;9.30;99.90;;;;;;4971492;28;87858;-74
2023/12/16 00:32:39;;;;;;;14.60;4.53;;;9.40;99.90;;;;;;4972165;28;87493;-74
2023/12/16 00:35:07;;;;;;;15.15;3.97;;;9.40;99.90;;;;;;4971470;28;87502;-74
2023/12/16 00:37:33;;;;;;;17.25;4.90;;;9.30;99.90;;;;;;4953742;28;92523;-75
2023/12/16 00:39:59;;;;;;;21.13;5.35;;;9.30;99.90;;;;;;4970917;28;88851;-74
2023/12/16 00:42:24;;;;;;;17.40;5.05;;;9.40;99.90;;;;;;4970966;28;87842;-75
2023/12/16 00:44:50;;;;;;;15.20;4.68;;;9.40;99.90;;;;;;4952455;28;89912;-75
2023/12/16 00:47:16;;;;;;;13.75;5.00;;;9.40;99.90;;;;;;4955221;28;91952;-74
2023/12/16 00:49:42;;;;;;;16.67;5.00;;;9.40;99.90;;;;;;4953720;28;91310;-75
2023/12/16 00:52:07;;;;;;;16.70;5.05;;;9.50;99.90;;;;;;4954482;28;87540;-74
2023/12/16 00:54:33;;;;;;;21.50;4.68;;;9.40;99.90;;;;;;4953896;28;90666;-73
2023/12/16 00:56:58;;;;;;;17.13;4.97;;;9.40;99.90;;;;;;4953064;28;91204;-74
2023/12/16 00:59:26;;;;;;;16.33;5.05;;;9.50;99.90;;;;;;4953009;28;91252;-73
2023/12/16 01:01:52;;;;;;;15.38;5.13;;;9.50;99.90;;;;;;4970465;28;88593;-74
2023/12/16 01:04:17;;;;;;;15.50;5.03;;;9.50;99.90;;;;;;4954315;28;90123;-74
2023/12/16 01:06:43;;;;;;;13.90;5.60;;;9.50;99.90;;;;;;4953368;28;91447;-74
2023/12/16 01:09:10;;;;;;;16.83;5.15;;;9.40;99.90;;;;;;4970013;28;88136;-73
2023/12/16 01:11:36;;;;;;;13.45;4.50;;;9.40;99.90;;;;;;4953487;28;87872;-74
2023/12/16 01:14:02;;;;;;;18.60;4.72;;;9.40;99.90;;;;;;4953563;28;93648;-80
2023/12/16 01:16:28;;;;;;;14.18;4.25;;;9.30;99.90;;;;;;4952281;28;89802;-76
2023/12/16 01:18:54;;;;;;;19.50;5.50;;;9.30;99.90;;;;;;4971289;28;87472;-74
2023/12/16 01:21:19;;;;;;;22.30;5.38;;;9.30;99.90;;;;;;4971153;28;87565;-73
2023/12/16 01:23:45;;;;;;;18.35;5.45;;;9.30;99.90;;;;;;4970919;28;87298;-74
2023/12/16 01:26:11;;;;;;;19.33;5.00;;;9.40;99.90;;;;;;4970821;28;88701;-74
2023/12/16 01:28:38;;;;;;;16.05;5.13;;;9.30;99.90;;;;;;4953929;28;92847;-74
2023/12/16 01:31:04;;;;;;;18.45;5.13;;;9.40;99.90;;;;;;4954124;28;87729;-73
2023/12/16 01:33:30;;;;;;;22.30;6.03;;;9.30;99.90;;;;;;4970662;28;87695;-73
2023/12/16 01:35:56;;;;;;;22.75;6.32;;;9.30;99.90;;;;;;4970555;28;88671;-73
2023/12/16 01:38:22;;;;;;;16.00;5.50;;;9.30;99.90;;;;;;4971463;28;89015;-74
2023/12/16 01:40:48;;;;;;;19.02;4.30;;;9.30;99.90;;;;;;4954007;28;88075;-74
2023/12/16 01:43:14;;;;;;;17.77;5.50;;;9.30;99.90;;;;;;4952487;28;90150;-73
2023/12/16 01:45:40;;;;;;;16.00;4.57;;;9.30;99.90;;;;;;4969676;28;88271;-73
2023/12/16 01:48:07;;;;;;;16.70;4.43;;;9.30;99.90;;;;;;4953252;28;91545;-73
2023/12/16 01:50:34;;;;;;;12.43;4.50;;;9.30;99.90;;;;;;4953284;28;89099;-74
2023/12/16 01:53:01;;;;;;;17.05;5.13;;;9.30;99.90;;;;;;4970378;28;87736;-74
2023/12/16 01:55:28;;;;;;;15.65;4.82;;;9.30;99.90;;;;;;4953043;28;92063;-74
2023/12/16 01:57:55;;;;;;;14.73;5.05;;;9.30;99.90;;;;;;4969752;28;87830;-73
2023/12/16 02:00:23;;;;;;;14.60;4.47;;;9.30;99.90;;;;;;4969682;28;87647;-74
2023/12/16 02:02:49;;;;;;;19.52;5.65;;;9.30;99.90;;;;;;4969541;28;87558;-75
2023/12/16 02:05:15;;;;;;;20.48;4.72;;;9.30;99.90;;;;;;4970720;28;87894;-73
2023/12/16 02:07:41;;;;;;;20.45;4.40;;;9.30;99.90;;;;;;4953492;28;91146;-74
2023/12/16 02:10:08;;;;;;;19.25;4.53;;;9.30;99.90;;;;;;4970124;28;87600;-74
2023/12/16 02:12:33;;;;;;;16.33;3.97;;;9.30;99.90;;;;;;4969737;28;87402;-73
2023/12/16 02:15:01;;;;;;;18.27;4.53;;;9.30;99.90;;;;;;4951329;28;90371;-73
2023/12/16 02:17:26;;;;;;;22.17;5.13;;;9.30;99.90;;;;;;4971140;28;88281;-74
2023/12/16 02:19:55;;;;;;;18.63;4.70;;;9.30;99.90;;;;;;4954164;28;88149;-73
2023/12/16 02:22:25;;;;;;;20.75;4.53;;;9.30;99.90;;;;;;4971611;28;87202;-74
2023/12/16 02:24:51;;;;;;;13.88;4.47;;;9.30;99.90;;;;;;4970886;28;88813;-75
2023/12/16 02:27:17;;;;;;;22.50;4.78;;;9.20;99.90;;;;;;4954527;28;91270;-74
2023/12/16 02:29:42;;;;;;;20.52;5.20;;;9.30;99.90;;;;;;4971905;28;87712;-74
2023/12/16 02:32:09;;;;;;;14.40;5.10;;;9.20;99.90;;;;;;4938822;28;88719;-75
2023/12/16 02:34:35;;;;;;;14.32;4.43;;;9.20;99.90;;;;;;4954365;28;90818;-74
2023/12/16 02:37:05;;;;;;;19.45;4.22;;;9.10;99.90;;;;;;4970677;28;88140;-74
2023/12/16 02:39:35;;;;;;;12.88;4.30;;;9.10;99.90;;;;;;4952656;28;88429;-73
2023/12/16 02:42:00;;;;;;;22.33;4.45;;;9.20;99.90;;;;;;4968673;28;90548;-73
2023/12/16 02:44:26;;;;;;;13.13;4.40;;;9.20;99.90;;;;;;4971480;28;87844;-73
2023/12/16 02:46:52;;;;;;;17.90;5.45;;;9.20;99.90;;;;;;4952820;28;92130;-74
2023/12/16 02:49:18;;;;;;;21.02;4.85;;;9.10;99.90;;;;;;4952694;28;88235;-75
2023/12/16 02:51:43;;;;;;;17.80;4.20;;;9.00;99.90;;;;;;4951605;28;88417;-75
2023/12/16 02:54:09;;;;;;;24.08;5.05;;;9.00;99.90;;;;;;4969360;28;88384;-74
2023/12/16 02:56:34;;;;;;;19.27;4.57;;;9.00;99.90;;;;;;4959613;28;91337;-73
2023/12/16 02:59:01;;;;;;;18.02;4.57;;;9.00;99.90;;;;;;4952135;28;87582;-73
2023/12/16 03:01:27;;;;;;;22.23;5.28;;;9.00;99.90;;;;;;4951956;28;90207;-74
2023/12/16 03:03:52;;;;;;;20.75;5.13;;;9.00;99.90;;;;;;4950516;28;92514;-74
2023/12/16 03:06:18;;;;;;;16.42;5.28;;;9.00;99.90;;;;;;4951852;28;92421;-75
2023/12/16 03:08:44;;;;;;;18.25;5.43;;;8.90;99.90;;;;;;4969918;28;87793;-74
2023/12/16 03:11:10;;;;;;;18.45;5.53;;;8.80;99.90;;;;;;4953144;28;90134;-74
2023/12/16 03:13:35;;;;;;;14.27;4.85;;;8.80;99.90;;;;;;4968638;28;87517;-73
2023/12/16 03:16:01;;;;;;;20.88;5.72;;;8.80;99.90;;;;;;4950690;28;91032;-74
2023/12/16 03:18:27;;;;;;;18.50;5.10;;;8.80;99.90;;;;;;4969927;28;87908;-74
2023/12/16 03:20:52;;;;;;;18.65;5.85;;;8.70;99.90;;;;;;4952781;28;90065;-74
2023/12/16 03:23:18;;;;;;;21.55;5.10;;;8.80;99.90;;;;;;4970360;28;87694;-75
2023/12/16 03:25:44;;;;;;;15.57;5.18;;;8.80;99.90;;;;;;4952293;28;91710;-74
2023/12/16 03:28:10;;;;;;;16.10;5.07;;;8.90;99.90;;;;;;4951401;28;88799;-73
2023/12/16 03:30:40;;;;;;;18.35;4.72;;;8.90;99.90;;;;;;4968605;28;87927;-73
2023/12/16 03:33:07;;;;;;;24.40;5.15;;;8.90;99.90;;;;;;4950166;28;89831;-74
2023/12/16 03:35:32;;;;;;;19.27;5.20;;;9.00;99.90;;;;;;4950792;28;90398;-73
2023/12/16 03:38:00;;;;;;;18.50;6.15;;;9.00;99.90;;;;;;4951539;28;87790;-74
2023/12/16 03:40:26;;;;;;;14.93;4.65;;;8.90;99.90;;;;;;4970400;28;87579;-74
2023/12/16 03:42:51;;;;;;;22.33;5.38;;;9.00;99.90;;;;;;4953019;28;91617;-73
2023/12/16 03:45:17;;;;;;;19.45;4.70;;;8.90;99.90;;;;;;4971976;28;87405;-73
2023/12/16 03:47:43;;;;;;;17.98;4.35;;;8.90;99.90;;;;;;4970726;28;87369;-75
2023/12/16 03:50:09;;;;;;;18.10;5.53;;;8.90;99.90;;;;;;4971439;28;87982;-74
2023/12/16 03:52:34;;;;;;;21.52;5.90;;;9.00;99.90;;;;;;4951944;28;92849;-76
2023/12/16 03:55:00;;;;;;;18.13;4.85;;;9.00;99.90;;;;;;4953856;28;92324;-73
2023/12/16 03:57:25;;;;;;;13.98;4.25;;;9.00;99.90;;;;;;4955065;28;88061;-73
2023/12/16 03:59:51;;;;;;;18.80;4.43;;;9.00;99.90;;;;;;4971499;28;87527;-73
2023/12/16 04:02:17;;;;;;;17.02;3.97;;;9.00;99.90;;;;;;4972904;28;88367;-73
2023/12/16 04:04:42;;;;;;;14.88;4.45;;;8.90;99.90;;;;;;4955141;28;91627;-75
2023/12/16 04:07:09;;;;;;;12.98;4.80;;;8.90;99.90;;;;;;4954351;28;88007;-74
2023/12/16 04:09:35;;;;;;;16.30;5.00;;;9.00;99.90;;;;;;4954646;28;90347;-74
2023/12/16 04:12:00;;;;;;;20.17;5.05;;;9.00;99.90;;;;;;4954469;28;90687;-73
2023/12/16 04:14:26;;;;;;;20.27;4.97;;;8.90;99.90;;;;;;4954997;28;91091;-74
2023/12/16 04:16:52;;;;;;;20.67;4.63;;;8.90;99.90;;;;;;4971720;28;88648;-75
2023/12/16 04:19:18;;;;;;;11.70;3.75;;;9.00;99.90;;;;;;4954497;28;90340;-73
2023/12/16 04:21:44;;;;;;;15.25;5.18;;;9.00;99.90;;;;;;4954274;28;92130;-74
2023/12/16 04:24:09;;;;;;;18.65;4.88;;;9.10;99.90;;;;;;4955412;28;91458;-73
2023/12/16 04:26:35;;;;;;;14.70;4.60;;;9.00;99.90;;;;;;4955231;28;87187;-74
2023/12/16 04:29:01;;;;;;;19.15;4.82;;;9.00;99.90;;;;;;4971535;28;87777;-73
2023/12/16 04:31:27;;;;;;;16.63;4.78;;;9.00;99.90;;;;;;4971946;28;88062;-75
2023/12/16 04:33:55;;;;;;;15.40;5.18;;;9.00;99.90;;;;;;4954227;28;91337;-74
2023/12/16 04:36:20;;;;;;;23.77;4.85;;;8.90;99.90;;;;;;4962448;28;87638;-73
2023/12/16 04:38:46;;;;;;;21.15;4.38;;;8.90;99.90;;;;;;4971704;28;87954;-74
2023/12/16 04:41:12;;;;;;;17.90;4.00;;;8.90;99.90;;;;;;4954907;28;92359;-76
2023/12/16 04:43:39;;;;;;;20.45;4.72;;;8.80;99.90;;;;;;4954189;28;91413;-74
2023/12/16 04:46:05;;;;;;;16.95;4.45;;;8.80;99.90;;;;;;4953590;28;87686;-74
2023/12/16 04:48:31;;;;;;;19.20;4.25;;;8.80;99.90;;;;;;4952858;28;90747;-74
2023/12/16 04:51:04;;;;;;;16.63;4.97;;;8.80;99.90;;;;;;4970377;28;88654;-75
2023/12/16 04:53:30;;;;;;;24.60;4.97;;;8.90;99.90;;;;;;4953433;28;90744;-74
2023/12/16 04:55:55;;;;;;;16.02;3.90;;;8.90;99.90;;;;;;4970434;28;87417;-75
2023/12/16 04:58:21;;;;;;;15.93;3.83;;;8.90;99.90;;;;;;4953162;28;90987;-73
2023/12/16 05:00:47;;;;;;;15.95;3.75;;;8.90;99.90;;;;;;4954158;28;91847;-74
2023/12/16 05:03:12;;;;;;;15.15;3.90;;;8.90;99.90;;;;;;4952575;28;90956;-75
2023/12/16 05:05:38;;;;;;;17.80;3.95;;;8.80;99.90;;;;;;4969845;28;89423;-74
2023/12/16 05:08:04;;;;;;;19.05;4.63;;;8.80;99.90;;;;;;4970720;28;87753;-74
2023/12/16 05:10:30;;;;;;;23.50;5.63;;;8.80;99.90;;;;;;4970266;28;87858;-75
2023/12/16 05:12:56;;;;;;;16.38;4.05;;;8.80;99.90;;;;;;4953076;28;90714;-73
2023/12/16 05:15:21;;;;;;;16.58;3.95;;;8.80;99.90;;;;;;4953347;28;87789;-73
2023/12/16 05:17:47;;;;;;;13.40;3.58;;;8.80;99.90;;;;;;4953381;28;90576;-73
2023/12/16 05:20:13;;;;;;;17.90;3.90;;;8.80;99.90;;;;;;4972465;28;87928;-74
2023/12/16 05:22:38;;;;;;;13.52;3.72;;;8.80;99.90;;;;;;4970069;28;87456;-74
2023/12/16 05:25:04;;;;;;;14.82;4.00;;;8.70;99.90;;;;;;4952848;28;88643;-75
2023/12/16 05:27:31;;;;;;;20.27;3.55;;;8.70;99.90;;;;;;4970128;28;89459;-74
2023/12/16 05:29:58;;;;;;;15.00;3.47;;;8.60;99.90;;;;;;4952292;28;92767;-73
2023/12/16 05:32:24;;;;;;;17.77;3.50;;;8.60;99.90;;;;;;4954010;28;92407;-73
2023/12/16 05:34:53;;;;;;;15.00;3.38;;;8.70;99.90;;;;;;4970219;28;87658;-73
2023/12/16 05:37:19;;;;;;;15.43;4.03;;;8.70;99.90;;;;;;4952858;28;90467;-73
2023/12/16 05:39:45;;;;;;;12.05;3.33;;;8.70;99.90;;;;;;4969780;28;87709;-75
2023/12/16 05:42:11;;;;;;;16.08;3.88;;;8.70;99.90;;;;;;4951914;28;90996;-74
2023/12/16 05:44:37;;;;;;;9.85;2.92;;;8.60;99.90;;;;;;4970374;28;87593;-75
2023/12/16 05:47:03;;;;;;;18.05;3.58;;;8.60;99.90;;;;;;4971566;28;87098;-76
2023/12/16 05:49:29;;;;;;;9.85;2.95;;;8.60;99.90;;;;;;4970007;28;87694;-73
2023/12/16 05:51:54;;;;;;;21.90;3.28;;;8.60;99.90;;;;;;4969859;28;88056;-75
2023/12/16 05:54:23;;;;;;;9.68;3.05;;;8.50;99.90;;;;;;4952124;28;88989;-74
2023/12/16 05:56:49;;;;;;;16.17;3.65;;;8.50;99.90;;;;;;4969738;28;87326;-73
2023/12/16 05:59:14;;;;;;;16.80;3.03;;;8.50;99.90;;;;;;4971139;28;88247;-73
2023/12/16 06:01:40;;;;;;;13.45;3.28;;;8.40;99.90;;;;;;4970211;28;88235;-74
2023/12/16 06:04:06;;;;;;;15.88;3.63;;;8.40;99.90;;;;;;4950982;28;87608;-73
2023/12/16 06:06:31;;;;;;;12.93;3.22;;;8.40;99.90;;;;;;4952167;28;90865;-74
2023/12/16 06:08:57;;;;;;;19.05;3.50;;;8.30;99.90;;;;;;4952806;28;92011;-74
2023/12/16 06:11:23;;;;;;;10.65;3.03;;;8.30;99.90;;;;;;4953217;28;91213;-73
2023/12/16 06:13:50;;;;;;;10.45;3.40;;;8.30;99.90;;;;;;4952154;28;87716;-74
2023/12/16 06:16:16;;;;;;;12.50;3.22;;;8.30;99.90;;;;;;4952453;28;89888;-73
2023/12/16 06:18:46;;;;;;;19.52;3.33;;;8.30;99.90;;;;;;4951132;28;92580;-74
2023/12/16 06:21:12;;;;;;;12.95;2.70;;;8.30;99.90;;;;;;4951754;28;91197;-74
2023/12/16 06:23:38;;;;;;;14.93;3.08;;;8.30;99.90;;;;;;4970328;28;87685;-74
2023/12/16 06:26:04;;;;;;;13.85;2.95;;;8.30;99.90;;;;;;4970464;28;87698;-74
2023/12/16 06:28:29;;;;;;;16.77;3.00;;;8.20;99.90;;;;;;4969632;28;88137;-73
2023/12/16 06:30:55;;;;;;;10.95;2.67;;;8.20;99.90;;;;;;4969896;28;87974;-73
2023/12/16 06:33:22;;;;;;;15.25;2.90;;;8.20;99.90;;;;;;4952536;28;87856;-74
2023/12/16 06:35:48;;;;;;;14.90;3.00;;;8.10;99.90;;;;;;4952168;28;90537;-76
2023/12/16 06:38:14;;;;;;;12.18;2.72;;;8.10;99.90;;;;;;4969718;28;88098;-74
2023/12/16 06:40:40;;;;;;;11.88;2.63;;;8.00;99.90;;;;;;4951968;28;90410;-73
2023/12/16 06:43:06;;;;;;;13.65;3.10;;;7.90;99.90;;;;;;4968793;28;88762;-74
2023/12/16 06:45:32;;;;;;;8.32;3.13;;;7.90;99.90;;;;;;4969710;28;87526;-74
2023/12/16 06:47:58;;;;;;;15.20;2.67;;;7.80;99.90;;;;;;4951896;28;91901;-73
2023/12/16 06:50:24;;;;;;;14.40;2.58;;;7.80;99.90;;;;;;4952333;28;91605;-73
2023/12/16 06:52:49;;;;;;;23.75;3.42;;;7.90;99.90;;;;;;4951446;28;87756;-73
2023/12/16 06:55:15;;;;;;;19.30;4.03;;;7.80;99.90;;;;;;4967805;28;87714;-73
2023/12/16 06:57:41;;;;;;;17.77;2.85;;;7.60;99.90;;;;;;4968745;28;87818;-73
2023/12/16 07:00:09;;;;;;;17.38;3.25;;;7.30;99.90;;;;;;4969519;28;87078;-73
2023/12/16 07:02:36;;;;;;;13.50;2.67;;;7.00;99.90;;;;;;4952529;28;87869;-72
2023/12/16 07:05:02;;;;;;;16.95;3.15;;;6.80;99.90;;;;;;4950612;28;94935;-74
2023/12/16 07:07:28;;;;;;;16.85;3.28;;;6.70;99.90;;;;;;4951219;28;94194;-75
2023/12/16 07:09:54;;;;;;;19.02;3.53;;;6.60;99.90;;;;;;4950815;28;93190;-73
2023/12/16 07:12:19;;;;;;;13.05;2.53;;;6.50;99.90;;;;;;4951744;28;87909;-73
2023/12/16 07:14:45;;;;;;;13.43;3.67;;;6.50;99.90;;;;;;4951879;28;90105;-73
2023/12/16 07:17:10;;;;;;;9.30;2.17;;;6.50;99.90;;;;;;4956621;28;91352;-73
2023/12/16 07:19:37;;;;;;;16.40;3.15;;;6.50;99.90;;;;;;4971959;28;88381;-73
2023/12/16 07:22:03;;;;;;;16.08;3.15;;;6.50;99.90;;;;;;4973316;28;87676;-75
2023/12/16 07:24:28;;;;;;;15.20;2.70;;;6.60;99.90;;;;;;4954586;28;91030;-74
2023/12/16 07:26:54;;;;;;;17.45;2.40;;;6.60;99.90;;;;;;4971454;28;88173;-73
2023/12/16 07:29:20;;;;;;;16.08;3.05;;;6.60;99.90;;;;;;4971375;28;88023;-73
2023/12/16 07:31:49;;;;;;;12.55;2.88;;;6.60;99.90;;;;;;4970476;28;88305;-74
2023/12/16 07:34:15;;;;;;;12.80;2.78;;;6.70;99.90;;;;;;4955727;28;90328;-73
2023/12/16 07:36:41;;;;;;;15.65;2.38;;;6.70;99.90;;;;;;4953754;28;91131;-73
2023/12/16 07:39:08;;;;;;;12.00;2.75;;;6.70;99.90;;;;;;4955109;28;91500;-73
2023/12/16 07:41:34;;;;;;;17.73;2.65;;;6.70;99.90;;;;;;4973571;28;87076;-73
2023/12/16 07:44:01;;;;;;;21.55;2.58;;;6.70;99.90;;;;;;4955303;28;89215;-73
2023/12/16 07:46:26;;;;;;;13.27;2.63;;;6.80;99.90;;;;;;4954593;28;91776;-74
2023/12/16 07:48:52;;;;;;;19.20;2.75;;;6.80;99.90;;;;;;4954608;28;89570;-74
2023/12/16 07:51:25;;;;;;;9.38;2.70;;;6.80;99.90;;;;;;4972707;28;87673;-73
2023/12/16 07:53:52;;;;;;;17.38;2.83;;;6.90;99.90;;;;;;4955582;28;90323;-74
2023/12/16 07:56:21;;;;;;;17.65;3.38;;;6.90;99.90;;;;;;4954343;28;91009;-73
2023/12/16 07:58:48;;;;;;;14.07;1.80;;;6.90;99.90;;;;;;4953880;28;91980;-73
2023/12/16 08:01:14;;;;;;;18.42;2.28;;;7.00;99.90;;;;;;4957673;28;88055;-75
2023/12/16 08:03:40;;;;;;;17.92;3.00;;;7.00;99.90;;;;;;4954342;28;89838;-73
2023/12/16 08:06:06;;;;;;;19.48;2.83;;;7.00;99.90;;;;;;4971040;28;87679;-73
2023/12/16 08:08:32;;;;;;;18.75;3.15;;;7.10;99.90;;;;;;4971688;28;88774;-74
2023/12/16 08:10:57;;;;;;;12.10;2.65;;;7.10;99.90;;;;;;4972167;28;87410;-73
2023/12/16 08:13:23;;;;;;;11.30;2.80;;;7.20;99.90;;;;;;4972729;28;87110;-73
2023/12/16 08:15:49;;;;;;;14.23;3.80;;;7.20;99.90;;;;;;4971030;28;88271;-73
2023/12/16 08:18:15;;;;;;;13.40;2.88;;;7.20;99.90;;;;;;4970923;28;88466;-74
2023/12/16 08:20:41;;;;;;;14.88;2.67;;;7.30;99.90;;;;;;4970329;28;89293;-74
2023/12/16 08:23:08;;;;;;;16.13;2.80;;;7.30;99.90;;;;;;4953707;28;90635;-74
2023/12/16 08:25:35;;;;;;;17.30;3.13;;;7.30;99.90;;;;;;4970090;28;89030;-74
2023/12/16 08:28:01;;;;;;;13.88;2.97;;;7.40;99.90;;;;;;4952574;28;91176;-74
2023/12/16 08:30:27;;;;;;;15.48;2.42;;;7.40;99.90;;;;;;4971877;28;87713;-74
2023/12/16 08:32:53;;;;;;;19.13;3.22;;;7.40;99.90;;;;;;4953497;28;89392;-73
2023/12/16 08:35:19;;;;;;;18.83;2.85;;;7.40;99.90;;;;;;4954520;28;89491;-75
2023/12/16 08:37:44;;;;;;;13.85;2.88;;;7.50;99.90;;;;;;4971860;28;87839;-75
2023/12/16 08:40:11;;;;;;;15.93;2.63;;;7.50;99.90;;;;;;4953611;28;87475;-75
2023/12/16 08:42:37;;;;;;;9.20;2.15;;;7.60;99.90;;;;;;4952277;28;90796;-75
2023/12/16 08:45:03;;;;;;;18.67;2.70;;;7.60;99.90;;;;;;4951486;28;91553;-75
2023/12/16 08:47:29;;;;;;;15.60;3.13;;;7.60;99.90;;;;;;4953555;28;93377;-75
2023/12/16 08:49:55;;;;;;;18.13;3.00;;;7.70;99.90;;;;;;4969947;28;87373;-75
2023/12/16 08:52:20;;;;;;;13.82;3.47;;;7.70;99.90;;;;;;4952268;28;91224;-75
2023/12/16 08:54:46;;;;;;;12.13;2.45;;;7.80;99.90;;;;;;4970020;28;88637;-75
2023/12/16 08:57:12;;;;;;;13.82;2.53;;;7.80;99.90;;;;;;4970636;28;88003;-75
2023/12/16 08:59:38;;;;;;;14.52;2.38;;;7.90;99.90;;;;;;4954148;28;87935;-75
2023/12/16 09:02:05;;;;;;;11.40;2.38;;;7.90;99.90;;;;;;4955990;28;90497;-75
2023/12/16 09:04:31;;;;;;;17.48;3.00;;;8.00;99.90;;;;;;4971562;28;88128;-75
2023/12/16 09:06:56;;;;;;;11.10;2.65;;;8.00;99.90;;;;;;4971995;28;87993;-76
2023/12/16 09:09:22;;;;;;;15.10;2.88;;;8.00;99.90;;;;;;4974605;28;89202;-75
2023/12/16 09:11:48;;;;;;;18.10;2.95;;;8.10;99.90;;;;;;4958217;28;90098;-75
2023/12/16 09:14:14;;;;;;;18.90;3.40;;;8.10;99.90;;;;;;4958255;28;90584;-75
2023/12/16 09:16:40;;;;;;;11.98;2.80;;;8.20;99.90;;;;;;4957322;28;90666;-75
2023/12/16 09:19:07;;;;;;;21.25;2.83;;;8.20;99.90;;;;;;4955844;28;87632;-74
2023/12/16 09:21:34;;;;;;;16.30;2.95;;;8.20;99.90;;;;;;4954905;28;90961;-75
2023/12/16 09:23:59;;;;;;;13.85;3.00;;;8.30;99.90;;;;;;4963463;28;88188;-75
2023/12/16 09:26:25;;;;;;;15.55;2.47;;;8.30;99.90;;;;;;4967830;28;87293;-76
2023/12/16 09:28:51;;;;;;;12.50;2.40;;;8.40;99.90;;;;;;4963778;28;87711;-74
2023/12/16 09:31:17;;;;;;;13.57;2.25;;;8.40;99.90;;;;;;4965339;28;88217;-77
2023/12/16 09:33:43;;;;;;;9.48;2.33;;;8.40;99.90;;;;;;4949856;28;93045;-75
2023/12/16 09:36:13;;;;;;;19.52;3.00;;;8.50;99.90;;;;;;4968170;28;88216;-76
2023/12/16 09:38:42;;;;;;;15.27;2.60;;;8.50;99.90;;;;;;4968963;28;87780;-75
2023/12/16 09:41:23;;;;;;;15.55;2.97;;;8.60;99.90;;;;;;4951594;28;90555;-74
2023/12/16 09:43:54;;;;;;;15.65;2.95;;;8.60;99.90;;;;;;4948071;28;89984;-75
2023/12/16 09:46:27;;;;;;;14.85;2.97;;;8.60;99.90;;;;;;4963970;28;87979;-74
2023/12/16 09:48:53;;;;;;;23.63;2.72;;;8.60;99.90;;;;;;4953988;28;87609;-75
2023/12/16 09:51:23;;;;;;;17.20;2.97;;;8.70;99.90;;;;;;4959133;28;89502;-75
2023/12/16 09:53:49;;;;;;;20.25;3.25;;;8.70;99.90;;;;;;4957349;28;91967;-75
2023/12/16 09:56:16;;;;;;;23.20;4.05;;;8.80;99.90;;;;;;4975680;28;88274;-75
2023/12/16 09:58:43;;;;;;;15.10;2.67;;;8.80;99.90;;;;;;4973148;28;88068;-74
2023/12/16 10:01:13;;;;;;;23.38;3.03;;;8.90;99.90;;;;;;4973332;28;87598;-74
2023/12/16 10:03:40;;;;;;;18.45;3.05;;;8.90;99.90;;;;;;4943503;28;91889;-75
2023/12/16 10:06:07;;;;;;;21.50;3.83;;;9.00;99.90;;;;;;4971399;28;87791;-75
2023/12/16 10:08:34;;;;;;;15.40;3.35;;;9.00;99.90;;;;;;4955612;28;87608;-75
2023/12/16 10:11:02;;;;;;;12.18;3.28;;;9.10;99.90;;;;;;4970916;28;87900;-75
2023/12/16 10:13:29;;;;;;;15.20;2.65;;;9.10;99.90;;;;;;4970170;28;87974;-75
2023/12/16 10:15:54;;;;;;;13.35;2.83;;;9.10;99.90;;;;;;4969392;28;88007;-75
2023/12/16 10:18:21;;;;;;;38.70;4.78;;;9.20;99.90;;;;;;4969922;28;87632;-75
2023/12/16 10:20:46;;;;;;;12.75;2.90;;;9.20;99.90;;;;;;4970823;28;87387;-75
2023/12/16 10:23:15;;;;;;;15.73;2.78;;;9.20;99.90;;;;;;4970703;28;88443;-75
2023/12/16 10:25:41;;;;;;;21.58;3.45;;;9.30;99.90;;;;;;4951279;28;93677;-75
2023/12/16 10:28:07;;;;;;;25.00;3.45;;;9.30;99.90;;;;;;4951880;28;89005;-75
2023/12/16 10:30:33;;;;;;;34.13;4.10;;;9.30;99.90;;;;;;4969749;28;87419;-75
2023/12/16 10:33:03;;;;;;;22.17;3.90;;;9.40;99.90;;;;;;4969191;28;88318;-75
2023/12/16 10:35:30;;;;;;;9.85;2.33;;;9.40;99.90;;;;;;4969255;28;88067;-75
2023/12/16 10:37:55;;;;;;;16.52;3.13;;;9.40;99.90;;;;;;4951486;28;87561;-76
2023/12/16 10:40:22;;;;;;;17.80;3.83;;;9.50;99.90;;;;;;4970743;28;87016;-75
2023/12/16 10:42:48;;;;;;;21.25;2.97;;;9.50;99.90;;;;;;4952605;28;90872;-75
2023/12/16 10:45:14;;;;;;;17.02;3.13;;;9.60;99.90;;;;;;4952008;28;92287;-76
2023/12/16 10:47:41;;;;;;;15.50;2.90;;;9.60;99.90;;;;;;4952956;28;89087;-75
2023/12/16 10:50:07;;;;;;;34.42;4.05;;;9.60;99.90;;;;;;4969997;28;87408;-75
2023/12/16 10:52:42;;;;;;;35.00;4.80;;;9.70;99.90;;;;;;4969250;28;88269;-75
2023/12/16 10:55:16;;;;;;;27.73;4.65;;;9.70;99.90;;;;;;4969747;28;88396;-75
2023/12/16 10:57:47;;;;;;;24.27;4.28;;;9.80;99.90;;;;;;4951628;28;87880;-75
2023/12/16 11:00:21;;;;;;;15.38;3.03;;;9.80;99.90;;;;;;4951808;28;90715;-75
2023/12/16 11:02:57;;;;;;;20.67;4.13;;;9.80;99.90;;;;;;4952037;28;91573;-75
2023/12/16 11:05:32;;;;;;;20.75;3.42;;;9.90;99.90;;;;;;4953450;28;91204;-74
2023/12/16 11:08:02;;;;;;;17.38;3.67;;;9.90;99.90;;;;;;4950706;28;87708;-75
2023/12/16 11:10:30;;;;;;;12.13;3.00;;;9.90;99.90;;;;;;4967247;28;87730;-75
2023/12/16 11:12:56;;;;;;;17.75;2.72;;;9.90;99.90;;;;;;4948269;28;93129;-74
2023/12/16 11:15:23;;;;;;;16.25;3.03;;;9.90;99.90;;;;;;4950536;28;92214;-74
2023/12/16 11:18:00;;;;;;;22.52;4.35;;;10.00;99.90;;;;;;4952323;28;87638;-74
2023/12/16 11:20:54;;;;;;;16.67;3.30;;;10.00;99.90;;;;;;4951802;28;90898;-74
2023/12/16 11:23:22;;;;;;;18.52;3.17;;;10.00;99.90;;;;;;4955475;28;92870;-74
2023/12/16 11:25:49;;;;;;;10.90;3.20;;;10.00;99.90;;;;;;4951100;28;89610;-74
2023/12/16 11:28:15;;;;;;;15.07;3.10;;;10.00;99.90;;;;;;4968384;28;87228;-74
2023/12/16 11:30:41;;;;;;;12.13;2.85;;;10.00;99.90;;;;;;4948027;28;90477;-74
2023/12/16 11:33:07;;;;;;;21.15;3.45;;;10.00;99.90;;;;;;4946155;28;90053;-74
2023/12/16 11:35:36;;;;;;;17.00;3.30;;;10.00;99.90;;;;;;4950566;28;91081;-74
2023/12/16 11:38:07;;;;;;;15.05;2.60;;;10.10;99.90;;;;;;4968588;28;88950;-76
2023/12/16 11:40:42;;;;;;;15.93;3.22;;;10.10;99.90;;;;;;4969015;28;87497;-74
2023/12/16 11:43:11;;;;;;;23.25;3.30;;;10.10;99.90;;;;;;4950570;28;91909;-74
2023/12/16 11:45:42;;;;;;;11.48;2.83;;;10.10;99.90;;;;;;4949926;28;91110;-75
2023/12/16 11:48:15;;;;;;;17.40;3.20;;;10.10;99.90;;;;;;4967861;28;87834;-74
2023/12/16 11:50:48;;;;;;;27.10;3.72;;;10.20;99.90;;;;;;4950229;28;89013;-74
2023/12/16 11:53:17;;;;;;;13.98;3.58;;;10.20;99.90;;;;;;4952228;28;91591;-74
2023/12/16 11:55:43;;;;;;;15.60;3.45;;;10.20;99.90;;;;;;4952407;28;91963;-74
2023/12/16 11:58:09;;;;;;;14.70;3.35;;;10.20;99.90;;;;;;4967947;28;87644;-75
2023/12/16 12:00:35;;;;;;;18.85;3.30;;;10.20;99.90;;;;;;4968339;28;88160;-75
2023/12/16 12:03:01;;;;;;;18.10;3.38;;;10.20;99.90;;;;;;4953129;28;92241;-74
2023/12/16 12:05:28;;;;;;;24.65;3.75;;;10.20;99.90;;;;;;4954287;28;91976;-74
2023/12/16 12:07:54;;;;;;;15.52;4.15;;;10.30;99.90;;;;;;4971597;28;87605;-74
2023/12/16 12:10:20;;;;;;;18.35;4.25;;;10.30;99.90;;;;;;4954355;28;89227;-74
2023/12/16 12:12:47;;;;;;;18.63;3.15;;;10.30;99.90;;;;;;4952931;28;91948;-74
2023/12/16 12:15:13;;;;;;;17.13;3.25;;;10.30;99.90;;;;;;4952970;28;91065;-75
2023/12/16 12:17:39;;;;;;;20.08;3.40;;;10.30;99.90;;;;;;4952667;28;88593;-74
2023/12/16 12:20:06;;;;;;;14.40;3.58;;;10.40;99.90;;;;;;4954890;28;90432;-75
2023/12/16 12:22:33;;;;;;;22.90;3.63;;;10.30;99.90;;;;;;4953929;28;92138;-74
2023/12/16 12:24:59;;;;;;;21.77;3.92;;;10.30;99.90;;;;;;4953661;28;92313;-74
2023/12/16 12:27:27;;;;;;;17.27;3.75;;;10.40;99.90;;;;;;4970882;28;88353;-74
2023/12/16 12:29:56;;;;;;;13.75;3.58;;;10.30;99.90;;;;;;4971094;28;87712;-75
2023/12/16 12:32:26;;;;;;;20.33;3.75;;;10.30;99.90;;;;;;4972457;28;87770;-75
2023/12/16 12:35:05;;;;;;;19.25;4.10;;;10.40;99.90;;;;;;4954234;28;91759;-74
2023/12/16 12:37:37;;;;;;;18.25;3.75;;;10.40;99.90;;;;;;4970628;28;87884;-78
2023/12/16 12:40:05;;;;;;;21.95;3.40;;;10.30;99.90;;;;;;4960128;28;90379;-74
2023/12/16 12:42:58;;;;;;;19.98;4.88;;;10.30;99.90;;;;;;4971158;28;87691;-75